Time;durP1;ratioP1;P1;durP2;ratioP2;P2;SDS_P1;SDS_P2;PMS_P1;PMS_P2;Temp;Humidity;BMP_temperature;BMP_pressure;BME280_temperature;BME280_humidity;BME280_pressure;Samples;Min_cycle;Max_cycle;Signal;HPM_P1;HPM_P2
2022/06/06 00:02:17;;;;;;;;;17.67;16.00;;;;;36.16;26.88;101213.91;5099039;27;45436;-76
2022/06/06 00:04:43;;;;;;;;;14.33;12.67;;;;;36.35;26.45;101274.09;5098811;27;46217;-76
2022/06/06 00:07:08;;;;;;;;;15.67;15.67;;;;;36.44;26.74;101266.91;5099066;27;45370;-77
2022/06/06 00:09:34;;;;;;;;;14.33;14.33;;;;;36.53;25.59;101258.75;5098998;27;45374;-76
2022/06/06 00:12:02;;;;;;;;;15.33;14.67;;;;;36.47;25.96;101256.50;5098957;27;45528;-76
2022/06/06 00:14:28;;;;;;;;;15.67;15.00;;;;;36.37;25.64;101272.97;5098772;27;45555;-76
2022/06/06 00:16:53;;;;;;;;;11.67;10.67;;;;;36.35;25.70;101272.19;5096968;27;45588;-77
2022/06/06 00:19:19;;;;;;;;;12.33;12.33;;;;;36.35;26.39;101247.31;5098852;27;45491;-76
2022/06/06 00:21:44;;;;;;;;;13.67;12.33;;;;;36.44;25.26;101276.06;5098714;27;45784;-76
2022/06/06 00:24:11;;;;;;;;;13.33;11.33;;;;;36.27;26.35;101260.88;5098604;27;46233;-76
2022/06/06 00:26:36;;;;;;;;;11.00;11.00;;;;;36.29;25.82;101263.50;5098751;27;45324;-76
2022/06/06 00:29:04;;;;;;;;;10.00;9.67;;;;;36.23;25.85;101264.88;5098529;27;45341;-76
2022/06/06 00:36:59;;;;;;;;;9.00;9.00;;;;;36.11;25.70;101247.44;5098267;27;45370;-76
2022/06/06 00:39:26;;;;;;;;;10.00;10.00;;;;;36.20;26.15;101255.00;5098673;27;45371;-76
2022/06/06 00:41:53;;;;;;;;;12.33;10.00;;;;;36.11;26.24;101254.84;5098465;27;45327;-76
2022/06/06 00:44:27;;;;;;;;;10.67;10.00;;;;;36.11;25.87;101254.84;5098359;27;46109;-76
2022/06/06 00:47:19;;;;;;;;;7.67;7.67;;;;;36.14;25.95;101251.84;5097846;27;45479;-77
2022/06/06 00:49:54;;;;;;;;;8.67;8.33;;;;;35.96;25.71;101230.22;5098509;27;45512;-76
2022/06/06 00:52:29;;;;;;;;;8.33;8.33;;;;;36.01;26.11;101235.41;5097065;27;45543;-76
2022/06/06 00:54:58;;;;;;;;;11.33;11.00;;;;;36.04;26.22;101255.34;5098107;27;46097;-77
2022/06/06 00:57:30;;;;;;;;;10.33;10.33;;;;;35.98;26.28;101247.56;5096584;27;45406;-76
2022/06/06 00:59:56;;;;;;;;;9.00;9.00;;;;;35.97;26.26;101245.81;5097916;27;45400;-76
2022/06/06 01:02:22;;;;;;;;;8.00;8.00;;;;;35.95;26.26;101242.31;5096777;27;45269;-76
2022/06/06 01:04:47;;;;;;;;;10.67;9.00;;;;;36.11;26.21;101257.63;5097952;27;45432;-76
2022/06/06 01:07:14;;;;;;;;;8.00;8.00;;;;;36.00;26.21;101247.44;5098212;27;45694;-77
2022/06/06 01:09:41;;;;;;;;;10.00;8.67;;;;;36.02;26.25;101249.06;5098060;27;45591;-76
2022/06/06 01:12:13;;;;;;;;;7.00;6.00;;;;;36.01;26.06;101241.78;5097821;27;45366;-77
2022/06/06 01:14:44;;;;;;;;;9.00;7.00;;;;;35.92;26.43;101222.31;5097941;27;46430;-77
2022/06/06 01:17:31;;;;;;;;;7.67;7.33;;;;;36.00;26.02;101240.03;5113201;27;45354;-77
2022/06/06 01:20:07;;;;;;;;;10.33;10.33;;;;;36.03;26.67;101241.66;5097889;27;45349;-76
2022/06/06 01:22:53;;;;;;;;;9.00;9.00;;;;;35.80;26.15;101208.47;5096727;27;45507;-76
2022/06/06 01:25:40;;;;;;;;;11.00;10.00;;;;;35.89;26.13;101249.19;5097197;27;45308;-76
2022/06/06 01:28:36;;;;;;;;;11.33;11.00;;;;;35.87;26.66;101239.28;5096107;27;45441;-76
2022/06/06 01:31:09;;;;;;;;;10.33;10.33;;;;;35.85;26.48;101235.75;5112930;27;45578;-76
2022/06/06 01:33:55;;;;;;;;;11.33;9.33;;;;;35.72;26.78;101227.53;5097897;27;46251;-76
2022/06/06 01:36:21;;;;;;;;;11.00;11.00;;;;;35.70;26.51;101224.03;5097587;27;46161;-77
2022/06/06 01:38:48;;;;;;;;;10.67;9.00;;;;;35.68;26.67;101220.50;5096067;27;46037;-76
2022/06/06 01:41:22;;;;;;;;;10.00;10.00;;;;;35.76;26.60;101229.06;5097747;27;45440;-76
2022/06/06 01:43:57;;;;;;;;;10.33;8.67;;;;;35.62;26.03;101219.13;5097424;27;45391;-76
2022/06/06 01:46:28;;;;;;;;;12.00;11.00;;;;;35.60;26.53;101237.69;5096952;27;46307;-77
2022/06/06 01:48:56;;;;;;;;;14.00;10.33;;;;;35.57;26.39;101228.78;5097289;27;45726;-77
2022/06/06 01:51:27;;;;;;;;;12.67;11.33;;;;;35.57;26.87;101239.81;5097720;27;45381;-77
2022/06/06 01:53:52;;;;;;;;;10.67;10.67;;;;;35.47;26.70;101214.81;5113232;27;45572;-77
2022/06/06 01:56:23;;;;;;;;;13.00;11.33;;;;;35.62;26.57;101234.81;5097118;27;45918;-77
2022/06/06 01:58:48;;;;;;;;;12.00;10.67;;;;;35.43;27.05;101216.06;5097205;27;45508;-77
2022/06/06 02:01:14;;;;;;;;;13.00;12.00;;;;;35.47;26.52;101214.81;5097034;27;45391;-77
2022/06/06 02:03:39;;;;;;;;;12.00;11.00;;;;;35.63;26.85;101225.53;5095838;27;45464;-77
2022/06/06 02:06:06;;;;;;;;;11.67;9.33;;;;;35.50;26.59;101209.97;5097055;27;46424;-76
2022/06/06 02:08:32;;;;;;;;;11.33;11.00;;;;;35.42;26.69;101209.69;5095794;27;45852;-77
2022/06/06 02:10:57;;;;;;;;;12.67;11.67;;;;;35.37;26.68;101206.41;5095479;27;45398;-77
2022/06/06 02:13:23;;;;;;;;;12.00;11.67;;;;;35.33;26.57;101205.78;5095823;27;45408;-77
2022/06/06 02:15:49;;;;;;;;;13.67;12.00;;;;;35.25;26.44;101191.69;5096498;27;46004;-77
2022/06/06 02:18:14;;;;;;;;;14.00;12.67;;;;;35.25;26.71;101199.94;5096710;27;45414;-77
2022/06/06 02:20:40;;;;;;;;;11.33;11.33;;;;;35.22;26.61;101197.44;5095941;27;45374;-77
2022/06/06 02:23:06;;;;;;;;;14.33;12.67;;;;;35.08;27.15;101200.38;5096815;27;45687;-77
2022/06/06 02:25:33;;;;;;;;;18.00;14.00;;;;;35.07;27.18;101198.66;5095478;27;47934;-77
2022/06/06 02:27:58;;;;;;;;;15.33;15.33;;;;;35.09;27.26;101210.41;5096533;27;45412;-77
2022/06/06 02:30:27;;;;;;;;;14.00;13.00;;;;;35.01;27.06;101200.00;5096637;27;45368;-77
2022/06/06 02:32:53;;;;;;;;;13.33;12.67;;;;;34.98;26.96;101211.25;5096784;27;45353;-77
2022/06/06 02:35:23;;;;;;;;;15.33;15.00;;;;;34.94;27.34;101207.84;5096437;27;45397;-77
2022/06/06 02:37:49;;;;;;;;;13.00;13.00;;;;;34.89;27.04;101206.47;5096666;27;45427;-77
2022/06/06 02:40:17;;;;;;;;;11.00;10.33;;;;;34.71;27.06;101176.50;5096596;27;45414;-77
2022/06/06 02:42:42;;;;;;;;;14.33;13.33;;;;;34.69;27.13;101195.03;5096256;27;45415;-77
2022/06/06 02:45:18;;;;;;;;;11.67;10.00;;;;;34.69;27.45;101206.94;5096337;27;46559;-77
2022/06/06 02:47:46;;;;;;;;;9.00;8.00;;;;;34.69;27.01;101193.16;5096797;27;45786;-77
2022/06/06 02:50:13;;;;;;;;;12.67;9.67;;;;;34.59;27.07;101191.25;5096288;27;45473;-77
2022/06/06 02:52:39;;;;;;;;;12.33;10.67;;;;;34.60;26.80;101191.13;5096806;27;45344;-77
2022/06/06 02:55:06;;;;;;;;;8.33;7.00;;;;;34.75;27.06;101201.97;5096143;27;45471;-77
2022/06/06 02:57:37;;;;;;;;;12.33;12.33;;;;;34.67;26.38;101197.03;5096036;27;45535;-77
2022/06/06 03:00:06;;;;;;;;;12.33;9.33;;;;;34.55;26.94;101200.72;5096093;27;45412;-77
2022/06/06 03:02:33;;;;;;;;;8.67;8.67;;;;;34.57;27.08;101207.00;5095327;27;45403;-77
2022/06/06 03:04:58;;;;;;;;;8.33;8.33;;;;;34.50;26.88;101209.31;5111769;27;48448;-77
2022/06/06 03:07:44;;;;;;;;;7.67;7.67;;;;;34.56;26.85;101205.22;5096113;27;45267;-77
2022/06/06 03:10:09;;;;;;;;;6.67;6.67;;;;;34.56;26.62;101206.13;5094729;27;45272;-77
2022/06/06 03:12:53;;;;;;;;;10.67;9.00;;;;;34.39;26.49;101210.16;5096066;27;45439;-77
2022/06/06 03:15:42;;;;;;;;;7.00;7.00;;;;;34.26;26.74;101220.28;5094789;27;48023;-77
2022/06/06 03:21:18;;;;;;;;;5.00;5.00;;;;;34.17;26.57;101222.72;5095648;27;45370;-77
2022/06/06 03:23:56;;;;;;;;;6.00;6.00;;;;;34.07;26.81;101218.88;5112008;27;45579;-77
2022/06/06 03:26:43;;;;;;;;;5.67;5.67;;;;;34.12;26.85;101227.69;5111410;27;47427;-77
2022/06/06 03:29:26;;;;;;;;;7.33;7.33;;;;;34.18;26.76;101207.97;5094370;27;45396;-77
2022/06/06 03:32:08;;;;;;;;;6.67;6.67;;;;;34.25;26.85;101219.41;5096088;27;45343;-77
2022/06/06 03:34:40;;;;;;;;;6.67;5.33;;;;;34.17;26.44;101222.72;5096019;27;45366;-77
2022/06/06 03:37:30;;;;;;;;;8.00;6.00;;;;;34.31;26.43;101226.38;5095496;27;45541;-77
2022/06/06 03:40:16;;;;;;;;;6.00;6.00;;;;;34.30;26.35;101222.72;5095887;27;45448;-77
2022/06/06 03:43:02;;;;;;;;;6.00;6.00;;;;;34.23;26.35;101228.78;5095690;27;45477;-77
2022/06/06 03:45:46;;;;;;;;;5.00;5.00;;;;;34.09;26.36;101222.38;5094584;27;45487;-77
2022/06/06 03:48:40;;;;;;;;;5.67;5.33;;;;;34.10;26.37;101226.91;5095420;27;45541;-77
2022/06/06 03:51:42;;;;;;;;;6.00;6.00;;;;;33.87;26.62;101220.34;5111299;27;45499;-76
2022/06/06 03:54:29;;;;;;;;;5.67;5.00;;;;;33.77;26.54;101228.38;5095554;27;45318;-77
2022/06/06 03:57:07;;;;;;;;;6.33;6.33;;;;;33.72;26.73;101226.91;5095099;27;45543;-77
2022/06/06 03:59:34;;;;;;;;;5.33;5.33;;;;;33.48;26.25;101209.28;5095622;27;45515;-77
2022/06/06 04:02:04;;;;;;;;;10.33;6.33;;;;;33.56;26.32;101217.00;5095489;27;45452;-77
2022/06/06 04:04:31;;;;;;;;;6.33;5.00;;;;;33.59;26.64;101235.16;5095683;27;45263;-77
2022/06/06 04:06:58;;;;;;;;;7.00;7.00;;;;;33.50;26.27;101209.16;5095290;27;45161;-77
2022/06/06 04:09:24;;;;;;;;;7.00;6.00;;;;;33.62;26.29;101241.31;5104114;27;45467;-77
2022/06/06 04:11:52;;;;;;;;;5.33;5.33;;;;;33.69;26.23;101245.38;5115823;27;45461;-77
2022/06/06 04:14:36;;;;;;;;;6.67;5.00;;;;;33.80;26.00;101250.16;5115885;27;45508;-77
2022/06/06 04:17:22;;;;;;;;;8.33;5.33;;;;;33.72;26.17;101255.31;5115592;27;45610;-77
2022/06/06 04:19:59;;;;;;;;;7.00;6.00;;;;;33.82;26.46;101256.44;5115976;27;46366;-77
2022/06/06 04:23:10;;;;;;;;;5.33;5.33;;;;;33.81;26.43;101257.44;5131883;27;45503;-77
2022/06/06 04:25:56;;;;;;;;;4.33;4.33;;;;;33.69;25.80;101234.38;5115662;27;45456;-78
2022/06/06 04:28:40;;;;;;;;;5.33;5.33;;;;;33.86;26.08;101265.38;5131640;27;46021;-77
2022/06/06 04:31:13;;;;;;;;;4.00;3.67;;;;;33.87;26.39;101257.97;5131499;27;47449;-77
2022/06/06 04:33:58;;;;;;;;;4.00;4.00;;;;;33.77;26.38;101252.25;5117220;27;45398;-77
2022/06/06 04:36:36;;;;;;;;;4.00;4.00;;;;;33.72;26.24;101255.31;5119290;27;45469;-77
2022/06/06 04:39:21;;;;;;;;;2.00;2.00;;;;;33.70;26.05;101232.53;5118628;27;45431;-77
2022/06/06 04:41:54;;;;;;;;;4.00;4.00;;;;;33.80;25.80;101255.69;5119192;27;45542;-78
2022/06/06 04:44:22;;;;;;;;;4.33;4.33;;;;;33.84;25.91;101250.84;5118945;27;45370;-77
2022/06/06 04:46:55;;;;;;;;;3.67;3.67;;;;;33.89;25.50;101259.63;5119388;27;45234;-77
2022/06/06 04:49:22;;;;;;;;;5.00;5.00;;;;;33.92;25.88;101245.63;5119025;27;45361;-78
2022/06/06 04:51:49;;;;;;;;;4.00;4.00;;;;;33.72;25.77;101224.16;5117783;27;47200;-77
2022/06/06 04:54:19;;;;;;;;;4.00;4.00;;;;;33.75;25.49;101243.19;5118414;27;45339;-77
2022/06/06 04:56:46;;;;;;;;;6.33;5.00;;;;;33.77;25.87;101244.91;5119155;27;45371;-77
2022/06/06 04:59:14;;;;;;;;;3.33;3.33;;;;;33.77;25.46;101238.50;5118996;27;45390;-77
2022/06/06 05:01:41;;;;;;;;;2.00;2.00;;;;;33.86;25.58;101246.09;5118846;27;45288;-76
2022/06/06 05:04:07;;;;;;;;;5.33;4.00;;;;;33.73;25.90;101231.41;5118334;27;45425;-77
2022/06/06 05:07:00;;;;;;;;;6.00;5.00;;;;;33.88;25.65;101257.00;5119256;27;45214;-77
2022/06/06 05:09:56;;;;;;;;;4.00;4.00;;;;;33.75;25.69;101254.22;5109393;27;45455;-77
2022/06/06 05:12:30;;;;;;;;;6.00;6.00;;;;;33.76;26.04;101251.38;5096472;27;46401;-77
2022/06/06 05:15:14;;;;;;;;;8.67;7.00;;;;;33.59;25.57;101255.28;5097826;27;45424;-77
2022/06/06 05:17:59;;;;;;;;;10.33;7.00;;;;;33.55;25.70;101244.63;5097849;27;45500;-77
2022/06/06 05:20:51;;;;;;;;;8.33;6.33;;;;;33.52;25.82;101226.47;5113712;27;45372;-76
2022/06/06 05:23:43;;;;;;;;;7.00;5.33;;;;;33.56;25.69;101232.59;5097186;27;45405;-78
2022/06/06 05:26:36;;;;;;;;;10.00;8.00;;;;;33.57;25.52;101250.88;5096531;27;45551;-78
2022/06/06 05:29:15;;;;;;;;;4.33;4.00;;;;;33.57;25.47;101250.88;5097682;27;45370;-78
2022/06/06 05:31:43;;;;;;;;;4.67;4.67;;;;;33.61;25.04;101257.94;5097976;27;45461;-78
2022/06/06 05:34:43;;;;;;;;;7.33;6.67;;;;;33.53;25.41;101244.75;5097636;27;45486;-81
2022/06/06 05:37:15;;;;;;;;;4.67;4.00;;;;;33.64;25.19;101274.22;5054209;28;45492;-80
2022/06/06 05:40:21;;;;;;;;;4.67;3.67;;;;;33.67;25.27;101269.41;5038002;28;45566;-78
2022/06/06 05:42:57;;;;;;;;;2.33;2.33;;;;;33.50;24.87;101233.94;5054505;28;45427;-78
2022/06/06 05:45:36;;;;;;;;;1.67;1.67;;;;;33.47;24.51;101254.31;5037204;28;47404;-79
2022/06/06 05:48:11;;;;;;;;;2.00;2.00;;;;;33.44;24.56;101257.25;5037475;28;45435;-80
2022/06/06 05:51:15;;;;;;;;;1.33;1.33;;;;;33.44;24.74;101275.63;5054831;28;45560;-77
2022/06/06 05:54:09;;;;;;;;;2.67;1.00;;;;;33.37;25.25;101275.16;5054146;28;45530;-75
2022/06/06 05:56:53;;;;;;;;;2.67;0.67;;;;;33.33;24.83;101285.50;5054316;28;45526;-75
2022/06/06 05:59:37;;;;;;;;;0.67;0.67;;;;;33.40;24.57;101285.06;5054034;28;45506;-75
2022/06/06 06:02:37;;;;;;;;;1.50;1.00;;;;;33.54;24.82;101276.75;5054364;28;45493;-73
2022/06/06 06:05:03;;;;;;;;;0.00;0.00;;;;;33.48;24.56;101278.03;5053891;28;45582;-69
2022/06/06 06:07:59;;;;;;;;;1.00;1.00;;;;;33.44;24.65;101273.75;5053671;28;46215;-69
2022/06/06 06:10:46;;;;;;;;;0.00;0.00;;;;;33.55;24.73;101280.38;5053746;28;45508;-69
2022/06/06 06:13:18;;;;;;;;;0.33;0.33;;;;;33.38;24.59;101285.19;5061253;27;45328;-68
2022/06/06 06:15:44;;;;;;;;;0.67;0.67;;;;;33.37;24.83;101288.03;5094940;27;45604;-75
2022/06/06 06:18:23;;;;;;;;;2.67;1.67;;;;;33.26;24.96;101288.78;5088012;27;46388;-75
2022/06/06 06:20:58;;;;;;;;;3.33;0.67;;;;;33.23;24.91;101283.50;5085501;27;45518;-75
2022/06/06 06:23:28;;;;;;;;;1.00;1.00;;;;;33.06;25.36;101266.25;5088467;27;45508;-75
2022/06/06 06:25:55;;;;;;;;;1.00;1.00;;;;;33.11;24.72;101298.94;5092261;27;45487;-75
2022/06/06 06:28:20;;;;;;;;;1.67;1.00;;;;;33.10;25.38;101294.41;5088849;27;46790;-75
2022/06/06 06:30:54;;;;;;;;;1.33;1.33;;;;;33.30;24.85;101304.09;5088424;27;45584;-74
2022/06/06 06:33:57;;;;;;;;;1.00;1.00;;;;;33.33;25.04;101299.25;5079518;27;45978;-75
2022/06/06 06:36:45;;;;;;;;;2.00;1.00;;;;;33.18;25.11;101289.28;5087230;27;45589;-75
2022/06/06 06:39:25;;;;;;;;;0.75;0.75;;;;;33.30;25.03;101302.19;5087146;27;45463;-75
2022/06/06 06:42:08;;;;;;;;;1.00;1.00;;;;;33.22;24.94;101298.19;5085365;27;45620;-75
2022/06/06 06:44:39;;;;;;;;;0.67;0.67;;;;;33.17;25.35;101318.63;5095715;27;45515;-75
2022/06/06 06:47:11;;;;;;;;;0.00;0.00;;;;;33.12;25.30;101318.06;5090668;27;45463;-75
2022/06/06 06:49:39;;;;;;;;;1.00;0.67;;;;;33.02;25.45;101319.66;5090434;27;46620;-74
2022/06/06 06:52:19;;;;;;;;;1.00;1.00;;;;;33.03;25.48;101312.31;5089764;27;45504;-75
2022/06/06 06:54:59;;;;;;;;;0.67;0.67;;;;;33.01;25.30;101317.91;5084900;27;45561;-75
2022/06/06 06:57:49;;;;;;;;;1.00;1.00;;;;;33.02;24.96;101314.16;5088096;27;45458;-75
2022/06/06 07:00:19;;;;;;;;;1.00;1.00;;;;;33.03;25.17;101315.94;5093186;27;46394;-75
2022/06/06 07:08:46;;;;;;;;;1.00;1.00;;;;;33.33;24.60;101307.53;5094436;27;45898;-75
2022/06/06 07:11:33;;;;;;;;;2.67;1.67;;;;;33.21;25.11;101308.31;5090104;27;46270;-75
2022/06/06 07:14:30;;;;;;;;;2.00;1.00;;;;;33.07;25.14;101312.00;5083071;27;45475;-74
2022/06/06 07:16:57;;;;;;;;;1.00;0.00;;;;;32.97;25.23;101303.50;5075159;27;45475;-76
2022/06/06 07:19:32;;;;;;;;;0.00;0.00;;;;;33.03;25.02;101302.19;5097720;27;45548;-74
2022/06/06 07:22:00;;;;;;;;;1.00;1.00;;;;;32.92;25.19;101271.81;5083767;27;45719;-76
2022/06/06 07:24:27;;;;;;;;;2.00;2.00;;;;;33.02;24.84;101292.16;5089929;27;45506;-75
2022/06/06 07:26:56;;;;;;;;;1.00;1.00;;;;;33.22;24.53;101268.84;5090454;27;45384;-75
2022/06/06 07:29:21;;;;;;;;;1.00;1.00;;;;;33.57;23.94;101300.41;5097183;27;45547;-75
2022/06/06 07:32:16;;;;;;;;;1.00;1.00;;;;;33.63;23.81;101308.22;5089564;27;45493;-75
2022/06/06 07:35:00;;;;;;;;;1.00;1.00;;;;;33.62;24.05;101301.84;5093202;27;45437;-75
2022/06/06 07:37:47;;;;;;;;;2.33;1.67;;;;;33.75;24.52;101299.09;5090321;27;45515;-75
2022/06/06 07:41:09;;;;;;;;;1.00;1.00;;;;;33.77;23.72;101299.94;5084494;27;45512;-75
2022/06/06 07:43:50;;;;;;;;;1.33;1.33;;;;;33.89;23.73;101300.06;5003875;28;45569;-76
2022/06/06 07:46:26;;;;;;;;;1.00;1.00;;;;;33.82;23.77;101286.72;5007105;28;45464;-76
2022/06/06 07:49:03;;;;;;;;;1.33;1.00;;;;;33.99;24.13;101292.88;5005148;28;45522;-75
2022/06/06 07:52:03;;;;;;;;;1.00;1.00;;;;;33.94;23.72;101293.22;5006640;28;45472;-75
2022/06/06 07:54:56;;;;;;;;;1.00;1.00;;;;;34.11;23.73;101289.25;5006689;28;45592;-75
2022/06/06 07:57:47;;;;;;;;;1.00;1.00;;;;;34.21;23.60;101286.72;5007438;28;45504;-75
2022/06/06 08:00:31;;;;;;;;;1.00;1.00;;;;;34.30;23.66;101279.69;4996447;28;45868;-75
2022/06/06 08:03:08;;;;;;;;;2.00;2.00;;;;;34.33;23.36;101293.22;5005306;28;45493;-75
2022/06/06 08:06:12;;;;;;;;;3.00;1.00;;;;;34.41;23.18;101288.03;5006781;28;46735;-75
2022/06/06 08:08:50;;;;;;;;;1.33;1.00;;;;;34.72;23.21;101291.25;5006063;28;45625;-76
2022/06/06 08:11:44;;;;;;;;;1.00;1.00;;;;;34.85;22.62;101286.63;5003647;28;45527;-76
2022/06/06 08:14:33;;;;;;;;;1.67;1.00;;;;;34.80;22.53;101280.59;5000743;28;46888;-77
2022/06/06 08:17:17;;;;;;;;;1.00;0.00;;;;;34.79;22.15;101289.81;5048981;28;46437;-77
2022/06/06 08:20:10;;;;;;;;;0.00;0.00;;;;;34.79;22.35;101286.19;5049604;28;45602;-77
2022/06/06 08:22:41;;;;;;;;;0.67;0.67;;;;;34.69;22.30;101261.19;5049924;28;45632;-75
2022/06/06 08:25:11;;;;;;;;;1.00;1.00;;;;;34.90;22.19;101274.38;5059069;28;45567;-76
2022/06/06 08:27:38;;;;;;;;;0.00;0.00;;;;;34.55;22.15;101259.47;5049439;28;46382;-76
2022/06/06 08:30:04;;;;;;;;;1.00;1.00;;;;;34.66;22.52;101265.06;5049543;28;45533;-75
2022/06/06 08:32:29;;;;;;;;;1.00;1.00;;;;;34.53;22.96;101267.84;5049537;28;45544;-75
2022/06/06 08:34:55;;;;;;;;;1.67;0.33;;;;;34.44;22.18;101257.50;5048697;28;45499;-75
2022/06/06 08:37:35;;;;;;;;;1.00;0.75;;;;;34.71;21.90;101261.94;5032285;28;47894;-76
2022/06/06 08:40:22;;;;;;;;;0.00;0.00;;;;;34.91;21.86;101278.88;5047667;28;46648;-74
2022/06/06 08:43:10;;;;;;;;;0.00;0.00;;;;;34.72;22.24;101258.19;5048439;28;45503;-75
2022/06/06 08:45:57;;;;;;;;;0.00;0.00;;;;;34.84;21.92;101273.84;5043886;28;45606;-75
2022/06/06 08:48:42;;;;;;;;;1.00;1.00;;;;;34.93;21.50;101269.50;5031935;28;48309;-76
2022/06/06 08:51:30;;;;;;;;;1.00;0.00;;;;;35.10;21.34;101265.44;5070454;27;45420;-77
2022/06/06 08:54:25;;;;;;;;;1.00;1.00;;;;;35.08;21.03;101247.25;5091746;27;45485;-75
2022/06/06 08:57:08;;;;;;;;;0.67;0.67;;;;;35.24;20.65;101267.13;5109453;27;46754;-77
2022/06/06 08:59:57;;;;;;;;;0.00;0.00;;;;;35.32;20.92;101258.31;5093230;27;45480;-75
2022/06/06 09:02:34;;;;;;;;;0.25;0.25;;;;;35.15;21.20;101263.22;5097838;27;45448;-76
2022/06/06 09:05:28;;;;;;;;;0.00;0.00;;;;;35.09;21.09;101262.81;5104928;27;45454;-77
2022/06/06 09:08:21;;;;;;;;;0.25;0.00;;;;;35.39;20.79;101259.59;5104797;27;45617;-75
2022/06/06 09:11:20;;;;;;;;;0.25;0.25;;;;;35.08;21.04;101261.03;5096253;27;47557;-76
2022/06/06 09:14:19;;;;;;;;;1.67;1.00;;;;;34.90;21.11;101268.88;5096069;27;45571;-76
2022/06/06 09:16:57;;;;;;;;;1.00;1.00;;;;;34.98;20.85;101266.38;5097232;27;45421;-75
2022/06/06 09:19:50;;;;;;;;;1.00;0.67;;;;;34.91;21.35;101267.84;5077469;27;45389;-76
2022/06/06 09:22:53;;;;;;;;;1.00;1.00;;;;;34.90;21.14;101274.38;5097344;27;45456;-76
2022/06/06 09:25:34;;;;;;;;;2.67;0.00;;;;;34.67;21.43;101260.41;5099174;27;45366;-76
2022/06/06 09:28:38;;;;;;;;;0.00;0.00;;;;;34.94;21.49;101276.78;5096974;27;45481;-76
2022/06/06 09:31:20;;;;;;;;;0.00;0.00;;;;;35.08;20.88;101244.50;5034973;28;45561;-76
2022/06/06 09:33:48;;;;;;;;;0.25;0.25;;;;;35.10;20.01;101262.69;5034985;28;46567;-76
2022/06/06 09:36:38;;;;;;;;;0.25;0.25;;;;;35.15;20.78;101260.47;5034063;28;45387;-76
2022/06/06 09:39:09;;;;;;;;;0.00;0.00;;;;;34.88;20.85;101249.66;5017949;28;45437;-76
2022/06/06 09:41:51;;;;;;;;;0.25;0.00;;;;;34.98;20.89;101270.03;5034994;28;45449;-76
2022/06/06 09:44:40;;;;;;;;;2.00;0.67;;;;;35.14;20.73;101260.59;4997694;28;45631;-76
2022/06/06 09:47:30;;;;;;;;;2.00;1.00;;;;;35.53;20.55;101250.22;5034710;28;45348;-76
2022/06/06 09:50:22;;;;;;;;;0.00;0.00;;;;;35.66;20.38;101250.13;5018076;28;45491;-76
2022/06/06 09:53:06;;;;;;;;;0.75;0.75;;;;;35.78;20.01;101251.00;5034915;28;45606;-76
2022/06/06 09:59:03;;;;;;;;;1.00;1.00;;;;;35.71;20.43;101256.13;5035942;28;45482;-75
2022/06/06 10:01:57;;;;;;;;;3.00;1.00;;;;;35.60;20.29;101261.63;5024276;28;45409;-76
2022/06/06 10:04:34;;;;;;;;;1.33;1.33;;;;;35.74;20.38;101261.44;5041548;28;45697;-75
2022/06/06 10:07:24;;;;;;;;;3.00;3.00;;;;;35.92;19.57;101249.94;5057609;27;45479;-75
2022/06/06 10:10:14;;;;;;;;;3.00;3.00;;;;;36.07;19.33;101245.94;5096719;27;45332;-75
2022/06/06 10:12:49;;;;;;;;;3.00;2.00;;;;;36.14;19.50;101238.91;5096768;27;45498;-75
2022/06/06 10:15:23;;;;;;;;;2.33;2.33;;;;;35.94;19.11;101257.09;5096166;27;45429;-75
2022/06/06 10:18:12;;;;;;;;;8.33;6.67;;;;;35.98;19.96;101254.94;5094940;27;46550;-75
2022/06/06 10:21:02;;;;;;;;;8.00;7.00;;;;;35.83;19.47;101252.44;5091552;27;45336;-76
2022/06/06 10:23:27;;;;;;;;;9.67;8.00;;;;;36.01;19.70;101249.22;5077651;27;45572;-76
2022/06/06 10:26:19;;;;;;;;;2.00;2.00;;;;;36.25;18.98;101254.59;5087485;27;45448;-76
2022/06/06 10:32:51;;;;;;;;;1.00;0.00;;;;;36.10;19.21;101256.72;5087454;27;45354;-75
2022/06/06 10:35:31;;;;;;;;;1.00;1.00;;;;;36.08;19.36;101264.28;5090042;27;45552;-76
2022/06/06 10:38:09;;;;;;;;;0.00;0.00;;;;;35.88;19.19;101263.13;5102894;27;45493;-75
2022/06/06 10:40:43;;;;;;;;;1.00;1.00;;;;;36.00;19.61;101258.47;5090577;27;45526;-75
2022/06/06 10:43:41;;;;;;;;;2.00;1.00;;;;;35.91;19.41;101261.97;5090095;27;45382;-76
2022/06/06 10:46:15;;;;;;;;;1.00;0.67;;;;;35.97;19.32;101267.03;5090756;27;45571;-75
2022/06/06 10:49:16;;;;;;;;;1.00;1.00;;;;;35.87;18.91;101253.09;5090194;27;45478;-74
2022/06/06 10:52:23;;;;;;;;;0.00;0.00;;;;;36.14;18.47;101260.13;5088945;27;48183;-75
2022/06/06 10:55:25;;;;;;;;;1.00;0.00;;;;;36.04;18.62;101248.94;5045982;28;45670;-76
2022/06/06 10:58:23;;;;;;;;;0.75;0.75;;;;;36.00;19.01;101250.19;5047077;28;45465;-75
2022/06/06 11:01:09;;;;;;;;;0.00;0.00;;;;;36.03;19.12;101253.59;5036036;28;45983;-76
2022/06/06 11:04:00;;;;;;;;;0.75;0.75;;;;;35.90;18.77;101255.59;5045658;28;46225;-76
2022/06/06 11:07:03;;;;;;;;;1.00;0.00;;;;;36.03;18.99;101255.47;5046163;28;45481;-75
2022/06/06 11:09:57;;;;;;;;;0.00;0.00;;;;;35.98;19.30;101257.72;4990961;28;45466;-76
2022/06/06 11:12:53;;;;;;;;;0.00;0.00;;;;;36.07;18.80;101243.16;4982905;28;45728;-74
2022/06/06 11:15:18;;;;;;;;;0.75;0.00;;;;;36.10;18.72;101245.69;4988862;28;45643;-75
2022/06/06 11:18:28;;;;;;;;;0.67;0.67;;;;;36.20;18.96;101248.56;4998627;28;46436;-76
2022/06/06 11:21:25;;;;;;;;;0.33;0.33;;;;;36.34;18.44;101252.97;4949951;28;45544;-76
2022/06/06 11:24:14;;;;;;;;;0.00;0.00;;;;;36.02;18.62;101250.94;4954383;28;45487;-76
2022/06/06 11:27:14;;;;;;;;;0.50;0.50;;;;;35.86;19.05;101246.66;4975882;28;46337;-76
2022/06/06 11:29:53;;;;;;;;;1.00;1.00;;;;;36.02;18.85;101245.41;4968913;28;45586;-75
2022/06/06 11:32:43;;;;;;;;;0.00;0.00;;;;;36.06;18.65;101241.41;4977470;28;45530;-76
2022/06/06 11:35:29;;;;;;;;;0.00;0.00;;;;;36.54;18.75;101251.31;4971218;28;45653;-76
2022/06/06 11:38:09;;;;;;;;;1.00;1.00;;;;;36.44;17.61;101244.81;4972910;28;45590;-76
2022/06/06 11:41:08;;;;;;;;;0.00;0.00;;;;;36.41;17.79;101232.13;4977070;28;45508;-76
2022/06/06 11:44:09;;;;;;;;;0.00;0.00;;;;;36.40;17.79;101236.78;4977537;28;45519;-76
2022/06/06 11:47:06;;;;;;;;;0.00;0.00;;;;;36.48;18.23;101241.66;5003849;28;45626;-76
2022/06/06 11:49:52;;;;;;;;;1.33;1.00;;;;;36.45;18.56;101236.38;4992602;28;47030;-76
2022/06/06 11:52:27;;;;;;;;;0.00;0.00;;;;;36.60;18.12;101233.34;5061583;27;45393;-76
2022/06/06 11:55:32;;;;;;;;;0.00;0.00;;;;;36.46;18.10;101232.63;5097550;27;46547;-75
2022/06/06 11:58:16;;;;;;;;;0.25;0.25;;;;;36.53;17.45;101235.75;5091230;27;46053;-76
2022/06/06 12:01:19;;;;;;;;;0.00;0.00;;;;;36.50;17.28;101245.19;5091002;27;47229;-76
2022/06/06 12:04:06;;;;;;;;;1.00;1.00;;;;;36.74;17.30;101231.19;5093243;27;45538;-75
2022/06/06 12:07:20;;;;;;;;;1.00;1.00;;;;;36.99;17.95;101222.69;5092219;27;45574;-76
2022/06/06 12:09:46;;;;;;;;;0.67;0.67;;;;;37.14;17.13;101232.44;5046249;28;45771;-77
2022/06/06 12:12:44;;;;;;;;;0.00;0.00;;;;;37.25;16.82;101235.16;5052616;28;45563;-76
2022/06/06 12:15:46;;;;;;;;;1.00;1.00;;;;;37.33;17.27;101226.22;5048543;28;45612;-76
2022/06/06 12:18:27;;;;;;;;;1.00;1.00;;;;;37.07;17.06;101222.91;5046402;28;45804;-75
2022/06/06 12:21:43;;;;;;;;;1.33;1.33;;;;;37.20;17.17;101223.63;5048000;28;45529;-75
2022/06/06 12:24:46;;;;;;;;;1.00;0.25;;;;;37.08;16.89;101224.69;5022851;28;45645;-76
2022/06/06 12:27:42;;;;;;;;;1.00;1.00;;;;;37.13;16.57;101222.41;5043588;28;45665;-76
2022/06/06 12:30:18;;;;;;;;;0.00;0.00;;;;;37.29;16.80;101229.41;5048129;28;45537;-75
2022/06/06 12:32:58;;;;;;;;;1.00;0.00;;;;;37.11;17.41;101212.47;5048823;28;46190;-76
2022/06/06 12:35:45;;;;;;;;;0.00;0.00;;;;;36.90;17.56;101207.78;5053019;28;46355;-76
2022/06/06 12:38:29;;;;;;;;;0.00;0.00;;;;;36.78;17.31;101208.78;5047311;28;45650;-77
2022/06/06 12:41:11;;;;;;;;;1.00;1.00;;;;;37.04;17.29;101203.81;5048267;28;45431;-76
2022/06/06 12:43:45;;;;;;;;;0.25;0.25;;;;;37.16;17.19;101196.34;5042737;28;45650;-78